Manchester, United Kingdom
Current Conditions -  °F | °C
As of 3:20 AM on Sunday 21 Dec 2014 (Local Time) from EGCC Reporting Station
Overcast Overcast  
Wind Chill: 39°   Ceiling: 3800
Heat Index: 45°   Visibility: 6mi
Dew Point: 41°   Wind: 12mph
Humidity: 87%   Direction: 210°SSW
Pressure: 30.3"   Gusts: NA
Location:  53.48°N, 2.23°W
Report Text: EGCC 210320Z AUTO 21010KT 9999 SCT032 OVC038 07/05 Q1026
Loading
Personal Weather Stations






























Interactive Weather Map New forecast layout! Learn more

10-Day Weather Forecast

Advertisements
Track Severe Weather on mobile